createdAt,value
2022-11-08T00:02:49.253Z,39.97
2022-11-08T00:07:09.798Z,45.95
2022-11-08T00:11:30.273Z,44.10
2022-11-08T00:15:38.610Z,42.40
2022-11-08T00:19:43.171Z,41.00
2022-11-08T00:23:45.183Z,38.92
2022-11-08T00:27:46.829Z,36.75
2022-11-08T00:31:48.718Z,44.40
2022-11-08T00:35:50.359Z,41.53
2022-11-08T00:39:52.216Z,38.13
2022-11-08T00:43:53.847Z,37.22
2022-11-08T00:47:55.906Z,36.00
2022-11-08T00:51:57.728Z,36.88
2022-11-08T00:56:05.386Z,36.42
2022-11-08T01:00:07.766Z,38.78
2022-11-08T01:04:11.287Z,38.63
2022-11-08T01:08:13.310Z,34.60
2022-11-08T01:12:15.297Z,33.90
2022-11-08T01:16:20.073Z,38.25
2022-11-08T01:20:22.234Z,36.25
2022-11-08T01:24:24.072Z,37.28
2022-11-08T01:28:26.069Z,34.80
2022-11-08T01:32:27.751Z,35.05
2022-11-08T01:36:30.217Z,32.10
2022-11-08T01:40:33.009Z,31.40
2022-11-08T01:44:58.842Z,38.30
2022-11-08T01:49:30.173Z,33.97
2022-11-08T01:53:32.392Z,32.78
2022-11-08T01:57:41.065Z,34.50
2022-11-08T02:01:44.152Z,34.95
2022-11-08T02:05:47.268Z,31.17
2022-11-08T02:09:49.205Z,35.53
2022-11-08T02:13:50.986Z,34.55
2022-11-08T02:17:54.098Z,34.22
2022-11-08T02:22:01.560Z,35.15
2022-11-08T02:26:03.624Z,37.60
2022-11-08T02:30:05.700Z,31.83
2022-11-08T02:34:07.620Z,36.47
2022-11-08T02:38:09.296Z,35.35
2022-11-08T02:42:16.805Z,35.03
2022-11-08T02:46:18.658Z,31.00
2022-11-08T02:50:21.127Z,36.45
2022-11-08T02:54:22.724Z,33.55
2022-11-08T02:58:24.846Z,37.70
2022-11-08T03:02:26.565Z,34.72
2022-11-08T03:06:28.610Z,36.33
2022-11-08T03:10:30.541Z,35.67
2022-11-08T03:14:32.629Z,35.47
2022-11-08T03:18:34.299Z,38.42
2022-11-08T03:22:36.258Z,34.10
2022-11-08T03:26:37.999Z,40.33
2022-11-08T03:30:39.926Z,41.17
2022-11-08T03:34:41.870Z,38.70
2022-11-08T03:38:43.994Z,33.97
2022-11-08T03:42:45.937Z,34.25
2022-11-08T03:46:47.837Z,35.22
2022-11-08T03:50:51.768Z,33.80
2022-11-08T03:54:53.686Z,38.17
2022-11-08T03:58:55.345Z,33.30
2022-11-08T04:03:03.063Z,41.53
2022-11-08T04:07:04.666Z,36.05
2022-11-08T04:11:25.374Z,37.25
2022-11-08T04:15:29.551Z,33.22
2022-11-08T04:19:50.463Z,36.25
2022-11-08T04:23:52.716Z,40.35
2022-11-08T04:27:54.740Z,31.55
2022-11-08T04:31:56.503Z,34.88
2022-11-08T04:36:07.363Z,33.47
2022-11-08T04:40:09.732Z,38.20
2022-11-08T04:44:11.820Z,40.05
2022-11-08T04:48:13.439Z,39.50
2022-11-08T04:52:16.478Z,36.72
2022-11-08T04:56:20.103Z,36.58
2022-11-08T05:00:22.177Z,36.15
2022-11-08T05:04:23.866Z,39.75
2022-11-08T05:08:25.810Z,38.22
2022-11-08T05:12:27.428Z,35.67
2022-11-08T05:16:32.305Z,38.30
2022-11-08T05:20:52.540Z,37.90
2022-11-08T05:24:54.552Z,42.70
2022-11-08T05:28:56.285Z,36.67
2022-11-08T05:32:58.382Z,42.40
2022-11-08T05:37:00.007Z,37.90
2022-11-08T05:41:06.485Z,39.78
2022-11-08T05:45:09.584Z,42.80
2022-11-08T05:49:11.743Z,35.33
2022-11-08T05:53:13.528Z,37.90
2022-11-08T05:57:18.759Z,40.50
2022-11-08T06:01:22.752Z,39.13
2022-11-08T06:05:24.762Z,48.17
2022-11-08T06:09:26.369Z,42.00
2022-11-08T06:13:28.654Z,38.75
2022-11-08T06:17:30.913Z,52.47
2022-11-08T06:21:32.850Z,37.47
2022-11-08T06:25:34.429Z,42.88
2022-11-08T06:29:36.594Z,43.58
2022-11-08T06:33:38.213Z,42.90
2022-11-08T06:37:40.159Z,49.92
2022-11-08T06:41:41.938Z,38.42
2022-11-08T06:45:43.885Z,49.60
2022-11-08T06:49:45.453Z,59.10
2022-11-08T06:53:47.492Z,50.42
2022-11-08T06:57:49.206Z,49.67
2022-11-08T07:01:51.247Z,41.10
2022-11-08T07:05:53.336Z,36.05
2022-11-08T07:09:58.347Z,45.30
2022-11-08T07:14:04.170Z,44.17
2022-11-08T07:18:09.389Z,40.65
2022-11-08T07:22:11.010Z,35.10
2022-11-08T07:26:13.524Z,34.38
2022-11-08T07:30:15.464Z,37.50
2022-11-08T07:34:17.743Z,36.13
2022-11-08T07:38:20.517Z,34.95
2022-11-08T07:42:22.543Z,31.67
2022-11-08T07:46:37.094Z,39.90
2022-11-08T07:50:40.460Z,31.50
2022-11-08T07:54:42.151Z,28.05
2022-11-08T07:58:44.015Z,32.47
2022-11-08T08:02:45.651Z,28.70
2022-11-08T08:06:47.786Z,23.23
2022-11-08T08:10:49.509Z,28.15
2022-11-08T08:14:51.517Z,23.73
2022-11-08T08:18:56.442Z,30.98
2022-11-08T08:22:59.865Z,22.80
2022-11-08T08:27:01.434Z,24.70
2022-11-08T08:31:06.825Z,26.42
2022-11-08T08:35:08.899Z,24.20
2022-11-08T08:39:10.874Z,26.02
2022-11-08T08:43:12.513Z,23.65
2022-11-08T08:47:14.471Z,24.65
2022-11-08T08:51:16.101Z,23.52
2022-11-08T08:55:18.458Z,21.48
2022-11-08T09:03:42.522Z,26.88
2022-11-08T09:07:44.346Z,24.30
2022-11-08T09:11:46.357Z,19.83
2022-11-08T09:15:48.183Z,22.70
2022-11-08T09:19:55.920Z,18.58
2022-11-08T09:23:58.780Z,18.92
2022-11-08T09:28:00.739Z,20.38
2022-11-08T09:32:02.947Z,15.50
2022-11-08T09:36:06.563Z,19.33
2022-11-08T09:40:14.715Z,17.90
2022-11-08T09:44:45.015Z,22.73
2022-11-08T09:48:46.688Z,17.88
2022-11-08T09:53:05.425Z,15.77
2022-11-08T09:57:17.287Z,13.87
2022-11-08T10:01:23.257Z,20.02
2022-11-08T10:05:34.892Z,20.52
2022-11-08T10:10:14.711Z,13.18
2022-11-08T10:14:31.944Z,15.57
2022-11-08T10:18:36.863Z,19.55
2022-11-08T10:22:50.489Z,14.15
2022-11-08T10:26:54.731Z,18.85
2022-11-08T10:30:56.772Z,15.18
2022-11-08T10:35:12.752Z,21.55
2022-11-08T10:39:21.739Z,16.23
2022-11-08T10:43:35.362Z,16.23
2022-11-08T10:47:37.491Z,13.60
2022-11-08T10:51:39.560Z,18.05
2022-11-08T10:55:49.016Z,18.02
2022-11-08T10:59:51.953Z,12.68
2022-11-08T11:03:54.040Z,13.18
2022-11-08T11:08:00.726Z,12.68
2022-11-08T11:12:08.139Z,9.93
2022-11-08T11:16:14.513Z,12.25
2022-11-08T11:20:22.804Z,13.57
2022-11-08T11:24:25.434Z,9.73
2022-11-08T11:28:27.013Z,11.63
2022-11-08T11:32:35.932Z,10.10
2022-11-08T11:36:37.882Z,8.13
2022-11-08T11:40:46.442Z,10.55
2022-11-08T11:45:09.653Z,8.18
2022-11-08T11:49:20.902Z,8.82
2022-11-08T11:53:28.279Z,8.75
2022-11-08T11:57:46.550Z,10.40
2022-11-08T12:02:03.720Z,9.98
2022-11-08T12:06:38.399Z,13.52
2022-11-08T12:11:18.895Z,6.80
2022-11-08T12:15:41.711Z,9.65
2022-11-08T12:20:14.456Z,13.82
2022-11-08T12:24:28.414Z,8.95
2022-11-08T12:28:55.745Z,11.88
2022-11-08T12:33:19.330Z,13.13
2022-11-08T12:37:38.683Z,11.57
2022-11-08T12:42:21.002Z,9.80
2022-11-08T12:46:22.621Z,10.48
2022-11-08T12:50:47.735Z,10.35
2022-11-08T12:54:56.984Z,10.60
2022-11-08T12:58:59.461Z,13.90
2022-11-08T13:03:27.061Z,9.00
2022-11-08T13:07:40.969Z,9.65
2022-11-08T13:12:07.050Z,15.00
2022-11-08T13:16:18.970Z,16.08
2022-11-08T13:20:47.178Z,15.20
2022-11-08T13:24:49.177Z,14.68
2022-11-08T13:28:52.539Z,12.50
2022-11-08T13:33:26.767Z,13.15
2022-11-08T13:37:58.624Z,12.32
2022-11-08T13:42:16.050Z,9.27
2022-11-08T13:46:20.554Z,11.15
2022-11-08T13:50:33.695Z,9.15
2022-11-08T13:54:49.407Z,9.38
2022-11-08T13:58:51.554Z,11.73
2022-11-08T14:02:53.134Z,12.68
2022-11-08T14:07:01.444Z,12.85
2022-11-08T14:11:15.254Z,11.30
2022-11-08T14:15:27.752Z,12.27
2022-11-08T14:19:32.991Z,11.15
2022-11-08T14:23:41.621Z,13.15
2022-11-08T14:27:43.355Z,12.07
2022-11-08T14:31:45.932Z,10.18
2022-11-08T14:36:01.087Z,11.52
2022-11-08T14:40:04.487Z,12.88
2022-11-08T14:44:14.321Z,17.85
2022-11-08T14:48:27.414Z,15.30
2022-11-08T14:52:32.824Z,11.65
2022-11-08T14:56:38.490Z,9.35
2022-11-08T15:00:43.407Z,14.88
2022-11-08T15:04:45.569Z,10.38
2022-11-08T15:08:51.338Z,13.60
2022-11-08T15:12:54.338Z,16.30
2022-11-08T15:17:02.529Z,15.38
2022-11-08T15:21:29.865Z,15.50
2022-11-08T15:25:35.252Z,12.65
2022-11-08T15:30:06.820Z,17.08
2022-11-08T15:34:22.844Z,17.38
2022-11-08T15:38:36.151Z,22.05
2022-11-08T15:42:44.760Z,17.23
2022-11-08T15:46:46.922Z,16.77
2022-11-08T15:50:49.641Z,18.40
2022-11-08T15:54:51.751Z,17.85
2022-11-08T15:58:53.355Z,21.95
2022-11-08T16:02:56.233Z,30.83
2022-11-08T16:06:58.129Z,27.58
2022-11-08T16:11:01.282Z,23.55
2022-11-08T16:15:03.685Z,16.92
2022-11-08T16:19:10.544Z,24.45
2022-11-08T16:23:13.281Z,20.13
2022-11-08T16:27:15.379Z,26.17
2022-11-08T16:31:20.464Z,30.55
2022-11-08T16:35:23.541Z,28.15
2022-11-08T16:39:28.378Z,30.35
2022-11-08T16:43:31.447Z,33.83
2022-11-08T16:47:33.568Z,39.45
2022-11-08T16:51:35.676Z,34.25
2022-11-08T16:55:37.267Z,22.10
2022-11-08T16:59:39.284Z,41.35
2022-11-08T17:03:40.967Z,45.65
2022-11-08T17:07:42.916Z,44.95
2022-11-08T17:11:44.495Z,44.97
2022-11-08T17:15:47.584Z,41.60
2022-11-08T17:19:49.191Z,35.80
2022-11-08T17:23:51.288Z,48.85
2022-11-08T17:27:53.342Z,40.75
2022-11-08T17:31:55.292Z,43.35
2022-11-08T17:36:03.621Z,46.90
2022-11-08T17:40:07.445Z,48.97
2022-11-08T17:44:09.390Z,58.75
2022-11-08T17:48:11.349Z,61.80
2022-11-08T17:52:13.108Z,52.08
2022-11-08T17:56:16.251Z,66.50
2022-11-08T18:00:18.119Z,67.93
2022-11-08T18:04:20.267Z,74.38
2022-11-08T18:08:26.710Z,76.10
2022-11-08T18:12:29.159Z,84.75
2022-11-08T18:16:31.908Z,70.00
2022-11-08T18:20:33.952Z,75.78
2022-11-08T18:24:35.646Z,71.07
2022-11-08T18:28:39.124Z,76.07
2022-11-08T18:32:40.706Z,66.70
2022-11-08T18:36:42.642Z,69.75
2022-11-08T18:40:45.669Z,78.43
2022-11-08T18:44:47.664Z,90.93
2022-11-08T18:48:50.373Z,86.40
2022-11-08T18:52:52.575Z,77.53
2022-11-08T18:56:54.313Z,79.13
2022-11-08T19:00:57.331Z,87.45
2022-11-08T19:05:00.268Z,91.18
2022-11-08T19:09:02.485Z,88.15
2022-11-08T19:13:04.069Z,89.20
2022-11-08T19:17:06.341Z,91.57
2022-11-08T19:21:14.754Z,87.80
2022-11-08T19:25:16.770Z,88.32
2022-11-08T19:29:18.872Z,83.38
2022-11-08T19:33:27.147Z,92.85
2022-11-08T19:37:28.734Z,67.15
2022-11-08T19:41:30.967Z,77.55
2022-11-08T19:45:32.646Z,82.13
2022-11-08T19:49:36.335Z,71.55
2022-11-08T19:53:38.224Z,81.93
2022-11-08T19:57:40.156Z,93.57
2022-11-08T20:01:41.840Z,90.63
2022-11-08T20:05:44.013Z,97.07
2022-11-08T20:09:45.617Z,78.95
2022-11-08T20:13:47.661Z,84.38
2022-11-08T20:17:49.500Z,87.25
2022-11-08T20:21:55.143Z,86.85
2022-11-08T20:26:00.961Z,93.43
2022-11-08T20:30:04.042Z,87.38
2022-11-08T20:34:09.901Z,92.95
2022-11-08T20:38:11.967Z,89.07
2022-11-08T20:42:13.709Z,81.78
2022-11-08T20:46:18.390Z,85.57
2022-11-08T20:50:20.189Z,89.38
2022-11-08T20:54:22.278Z,90.28
2022-11-08T20:58:29.261Z,93.80
2022-11-08T21:02:31.131Z,98.38
2022-11-08T21:06:36.435Z,105.00
2022-11-08T21:10:43.606Z,98.32
2022-11-08T21:14:45.579Z,95.38
2022-11-08T21:18:47.619Z,105.45
2022-11-08T21:22:49.344Z,90.45
2022-11-08T21:26:51.357Z,106.32
2022-11-08T21:30:53.692Z,97.28
2022-11-08T21:34:55.689Z,111.22
2022-11-08T21:38:57.424Z,92.53
2022-11-08T21:42:59.642Z,95.25
2022-11-08T21:47:01.360Z,96.00
2022-11-08T21:51:03.935Z,88.05
2022-11-08T21:55:06.442Z,89.03
2022-11-08T21:59:08.422Z,87.85
2022-11-08T22:03:11.138Z,91.75
2022-11-08T22:07:13.220Z,90.95
2022-11-08T22:11:15.000Z,94.57
2022-11-08T22:15:17.119Z,92.03
2022-11-08T22:19:18.900Z,87.95
2022-11-08T22:23:20.878Z,95.35
2022-11-08T22:27:22.625Z,89.88
2022-11-08T22:31:24.719Z,91.20
2022-11-08T22:35:26.400Z,85.22
2022-11-08T22:39:28.416Z,81.32
2022-11-08T22:43:30.885Z,92.18
2022-11-08T22:47:32.885Z,78.07
2022-11-08T22:51:35.113Z,85.70
2022-11-08T22:55:37.311Z,68.65
2022-11-08T22:59:39.072Z,73.57
2022-11-08T23:03:44.392Z,63.60
2022-11-08T23:07:46.194Z,74.03
2022-11-08T23:12:06.543Z,60.42
2022-11-08T23:16:18.692Z,79.85
2022-11-08T23:20:39.532Z,71.43
2022-11-08T23:24:42.895Z,71.32
2022-11-08T23:29:03.296Z,70.88
2022-11-08T23:33:06.873Z,69.43
2022-11-08T23:37:09.020Z,68.72
2022-11-08T23:41:30.088Z,74.05
2022-11-08T23:45:32.132Z,75.15
2022-11-08T23:49:33.715Z,77.60
2022-11-08T23:53:37.111Z,75.97
2022-11-08T23:57:39.097Z,73.65
